sensor_id;sensor_type;location;lat;lon;timestamp;P1;durP1;ratioP1;P2;durP2;ratioP2
55186;SDS011;55457;52.002;5.464;2022-08-21T00:01:42;4.45;;;2.75;;
55186;SDS011;55457;52.002;5.464;2022-08-21T00:04:07;5.47;;;2.33;;
55186;SDS011;55457;52.002;5.464;2022-08-21T00:06:34;5.47;;;2.15;;
55186;SDS011;55457;52.002;5.464;2022-08-21T00:09:01;6.40;;;2.05;;
55186;SDS011;55457;52.002;5.464;2022-08-21T00:11:29;4.20;;;2.28;;
55186;SDS011;55457;52.002;5.464;2022-08-21T00:13:54;2.78;;;2.30;;
55186;SDS011;55457;52.002;5.464;2022-08-21T00:16:20;5.15;;;2.10;;
55186;SDS011;55457;52.002;5.464;2022-08-21T00:18:45;4.35;;;2.60;;
55186;SDS011;55457;52.002;5.464;2022-08-21T00:21:12;3.35;;;2.30;;
55186;SDS011;55457;52.002;5.464;2022-08-21T00:23:38;5.00;;;2.58;;
55186;SDS011;55457;52.002;5.464;2022-08-21T00:26:04;2.78;;;2.20;;
55186;SDS011;55457;52.002;5.464;2022-08-21T00:28:29;4.00;;;2.42;;
55186;SDS011;55457;52.002;5.464;2022-08-21T00:30:55;6.85;;;2.78;;
55186;SDS011;55457;52.002;5.464;2022-08-21T00:33:21;5.03;;;2.40;;
55186;SDS011;55457;52.002;5.464;2022-08-21T00:35:47;3.97;;;2.60;;
55186;SDS011;55457;52.002;5.464;2022-08-21T00:38:13;4.15;;;2.35;;
55186;SDS011;55457;52.002;5.464;2022-08-21T00:40:41;4.10;;;2.40;;
55186;SDS011;55457;52.002;5.464;2022-08-21T00:43:13;4.65;;;2.70;;
55186;SDS011;55457;52.002;5.464;2022-08-21T00:45:41;5.60;;;2.70;;
55186;SDS011;55457;52.002;5.464;2022-08-21T00:48:06;4.82;;;2.25;;
55186;SDS011;55457;52.002;5.464;2022-08-21T00:50:33;5.22;;;2.42;;
55186;SDS011;55457;52.002;5.464;2022-08-21T00:53:03;3.72;;;2.45;;
55186;SDS011;55457;52.002;5.464;2022-08-21T00:55:31;5.35;;;2.60;;
55186;SDS011;55457;52.002;5.464;2022-08-21T00:57:59;3.13;;;2.45;;
55186;SDS011;55457;52.002;5.464;2022-08-21T01:00:32;5.47;;;2.95;;
55186;SDS011;55457;52.002;5.464;2022-08-21T01:03:01;5.60;;;2.70;;
55186;SDS011;55457;52.002;5.464;2022-08-21T01:05:30;2.83;;;1.95;;
55186;SDS011;55457;52.002;5.464;2022-08-21T01:07:57;3.50;;;2.20;;
55186;SDS011;55457;52.002;5.464;2022-08-21T01:10:23;3.95;;;2.33;;
55186;SDS011;55457;52.002;5.464;2022-08-21T01:12:49;5.40;;;2.63;;
55186;SDS011;55457;52.002;5.464;2022-08-21T01:15:16;5.10;;;2.40;;
55186;SDS011;55457;52.002;5.464;2022-08-21T01:17:44;5.68;;;2.30;;
55186;SDS011;55457;52.002;5.464;2022-08-21T01:20:10;4.55;;;2.55;;
55186;SDS011;55457;52.002;5.464;2022-08-21T01:22:36;5.00;;;3.00;;
55186;SDS011;55457;52.002;5.464;2022-08-21T01:25:06;3.13;;;2.25;;
55186;SDS011;55457;52.002;5.464;2022-08-21T01:27:33;4.78;;;2.95;;
55186;SDS011;55457;52.002;5.464;2022-08-21T01:30:08;3.35;;;2.38;;
55186;SDS011;55457;52.002;5.464;2022-08-21T01:32:37;3.42;;;2.53;;
55186;SDS011;55457;52.002;5.464;2022-08-21T01:35:03;4.95;;;2.20;;
55186;SDS011;55457;52.002;5.464;2022-08-21T01:37:29;7.95;;;2.90;;
55186;SDS011;55457;52.002;5.464;2022-08-21T01:39:55;3.55;;;2.88;;
55186;SDS011;55457;52.002;5.464;2022-08-21T01:42:20;6.00;;;2.85;;
55186;SDS011;55457;52.002;5.464;2022-08-21T01:44:45;3.88;;;2.20;;
55186;SDS011;55457;52.002;5.464;2022-08-21T01:47:12;4.75;;;2.05;;
55186;SDS011;55457;52.002;5.464;2022-08-21T01:49:38;6.18;;;2.85;;
55186;SDS011;55457;52.002;5.464;2022-08-21T01:52:04;4.18;;;2.53;;
55186;SDS011;55457;52.002;5.464;2022-08-21T01:54:31;5.70;;;3.20;;
55186;SDS011;55457;52.002;5.464;2022-08-21T01:56:56;3.58;;;2.35;;
55186;SDS011;55457;52.002;5.464;2022-08-21T01:59:23;7.57;;;2.42;;
55186;SDS011;55457;52.002;5.464;2022-08-21T02:01:49;4.25;;;2.65;;
55186;SDS011;55457;52.002;5.464;2022-08-21T02:04:15;4.70;;;3.00;;
55186;SDS011;55457;52.002;5.464;2022-08-21T02:06:41;3.80;;;2.65;;
55186;SDS011;55457;52.002;5.464;2022-08-21T02:09:08;3.58;;;2.40;;
55186;SDS011;55457;52.002;5.464;2022-08-21T02:11:35;6.22;;;2.67;;
55186;SDS011;55457;52.002;5.464;2022-08-21T02:14:01;5.25;;;2.78;;
55186;SDS011;55457;52.002;5.464;2022-08-21T02:16:27;5.00;;;2.65;;
55186;SDS011;55457;52.002;5.464;2022-08-21T02:18:52;4.40;;;2.97;;
55186;SDS011;55457;52.002;5.464;2022-08-21T02:21:18;4.82;;;2.15;;
55186;SDS011;55457;52.002;5.464;2022-08-21T02:23:43;3.75;;;2.45;;
55186;SDS011;55457;52.002;5.464;2022-08-21T02:26:09;4.63;;;2.60;;
55186;SDS011;55457;52.002;5.464;2022-08-21T02:28:35;5.00;;;2.45;;
55186;SDS011;55457;52.002;5.464;2022-08-21T02:31:03;3.95;;;2.50;;
55186;SDS011;55457;52.002;5.464;2022-08-21T02:33:29;5.07;;;2.95;;
55186;SDS011;55457;52.002;5.464;2022-08-21T02:35:55;4.90;;;2.90;;
55186;SDS011;55457;52.002;5.464;2022-08-21T02:38:22;4.90;;;3.13;;
55186;SDS011;55457;52.002;5.464;2022-08-21T02:40:51;2.90;;;2.35;;
55186;SDS011;55457;52.002;5.464;2022-08-21T02:43:18;3.47;;;2.47;;
55186;SDS011;55457;52.002;5.464;2022-08-21T02:45:45;4.40;;;2.85;;
55186;SDS011;55457;52.002;5.464;2022-08-21T02:48:13;4.05;;;2.90;;
55186;SDS011;55457;52.002;5.464;2022-08-21T02:50:41;4.65;;;3.00;;
55186;SDS011;55457;52.002;5.464;2022-08-21T02:53:17;5.88;;;2.53;;
55186;SDS011;55457;52.002;5.464;2022-08-21T02:55:46;4.25;;;2.28;;
55186;SDS011;55457;52.002;5.464;2022-08-21T02:58:13;4.03;;;2.65;;
55186;SDS011;55457;52.002;5.464;2022-08-21T03:00:40;4.63;;;2.97;;
55186;SDS011;55457;52.002;5.464;2022-08-21T03:03:06;5.03;;;2.33;;
55186;SDS011;55457;52.002;5.464;2022-08-21T03:05:32;3.28;;;2.45;;
55186;SDS011;55457;52.002;5.464;2022-08-21T03:08:00;4.93;;;2.63;;
55186;SDS011;55457;52.002;5.464;2022-08-21T03:10:27;5.20;;;2.60;;
55186;SDS011;55457;52.002;5.464;2022-08-21T03:12:53;4.13;;;2.70;;
55186;SDS011;55457;52.002;5.464;2022-08-21T03:15:20;4.03;;;2.42;;
55186;SDS011;55457;52.002;5.464;2022-08-21T03:17:48;4.32;;;2.80;;
55186;SDS011;55457;52.002;5.464;2022-08-21T03:20:16;3.08;;;2.25;;
55186;SDS011;55457;52.002;5.464;2022-08-21T03:22:43;6.10;;;2.60;;
55186;SDS011;55457;52.002;5.464;2022-08-21T03:25:08;5.78;;;2.78;;
55186;SDS011;55457;52.002;5.464;2022-08-21T03:27:35;5.60;;;2.60;;
55186;SDS011;55457;52.002;5.464;2022-08-21T03:30:02;3.90;;;2.80;;
55186;SDS011;55457;52.002;5.464;2022-08-21T03:32:29;3.58;;;2.55;;
55186;SDS011;55457;52.002;5.464;2022-08-21T03:34:55;4.70;;;2.55;;
55186;SDS011;55457;52.002;5.464;2022-08-21T03:37:20;4.93;;;2.40;;
55186;SDS011;55457;52.002;5.464;2022-08-21T03:39:45;6.03;;;3.42;;
55186;SDS011;55457;52.002;5.464;2022-08-21T03:42:11;3.67;;;2.55;;
55186;SDS011;55457;52.002;5.464;2022-08-21T03:44:36;3.47;;;2.75;;
55186;SDS011;55457;52.002;5.464;2022-08-21T03:47:04;4.07;;;2.65;;
55186;SDS011;55457;52.002;5.464;2022-08-21T03:49:30;6.70;;;2.75;;
55186;SDS011;55457;52.002;5.464;2022-08-21T03:51:55;4.45;;;2.60;;
55186;SDS011;55457;52.002;5.464;2022-08-21T03:54:21;10.50;;;3.40;;
55186;SDS011;55457;52.002;5.464;2022-08-21T03:56:46;3.85;;;2.28;;
55186;SDS011;55457;52.002;5.464;2022-08-21T03:59:12;6.28;;;3.25;;
55186;SDS011;55457;52.002;5.464;2022-08-21T04:01:38;5.78;;;3.10;;
55186;SDS011;55457;52.002;5.464;2022-08-21T04:04:04;6.43;;;2.90;;
55186;SDS011;55457;52.002;5.464;2022-08-21T04:06:30;5.07;;;2.42;;
55186;SDS011;55457;52.002;5.464;2022-08-21T04:08:56;4.55;;;2.30;;
55186;SDS011;55457;52.002;5.464;2022-08-21T04:11:21;4.05;;;2.40;;
55186;SDS011;55457;52.002;5.464;2022-08-21T04:13:46;6.13;;;2.85;;
55186;SDS011;55457;52.002;5.464;2022-08-21T04:16:12;3.42;;;2.38;;
55186;SDS011;55457;52.002;5.464;2022-08-21T04:18:38;4.63;;;3.10;;
55186;SDS011;55457;52.002;5.464;2022-08-21T04:21:04;4.28;;;2.65;;
55186;SDS011;55457;52.002;5.464;2022-08-21T04:23:31;5.75;;;2.58;;
55186;SDS011;55457;52.002;5.464;2022-08-21T04:25:56;5.85;;;2.45;;
55186;SDS011;55457;52.002;5.464;2022-08-21T04:28:23;8.25;;;2.60;;
55186;SDS011;55457;52.002;5.464;2022-08-21T04:30:51;4.60;;;2.55;;
55186;SDS011;55457;52.002;5.464;2022-08-21T04:33:17;4.15;;;2.38;;
55186;SDS011;55457;52.002;5.464;2022-08-21T04:35:42;5.82;;;3.20;;
55186;SDS011;55457;52.002;5.464;2022-08-21T04:38:08;5.18;;;2.58;;
55186;SDS011;55457;52.002;5.464;2022-08-21T04:40:34;4.68;;;2.40;;
55186;SDS011;55457;52.002;5.464;2022-08-21T04:43:04;3.95;;;2.45;;
55186;SDS011;55457;52.002;5.464;2022-08-21T04:45:32;7.40;;;2.50;;
55186;SDS011;55457;52.002;5.464;2022-08-21T04:48:00;6.60;;;2.83;;
55186;SDS011;55457;52.002;5.464;2022-08-21T04:50:29;4.32;;;3.03;;
55186;SDS011;55457;52.002;5.464;2022-08-21T04:53:07;4.82;;;2.92;;
55186;SDS011;55457;52.002;5.464;2022-08-21T04:55:36;3.80;;;2.90;;
55186;SDS011;55457;52.002;5.464;2022-08-21T04:58:03;5.85;;;2.67;;
55186;SDS011;55457;52.002;5.464;2022-08-21T05:00:31;7.57;;;2.78;;
55186;SDS011;55457;52.002;5.464;2022-08-21T05:02:56;6.25;;;3.08;;
55186;SDS011;55457;52.002;5.464;2022-08-21T05:05:24;7.07;;;3.17;;
55186;SDS011;55457;52.002;5.464;2022-08-21T05:07:50;5.88;;;3.22;;
55186;SDS011;55457;52.002;5.464;2022-08-21T05:10:17;6.75;;;3.33;;
55186;SDS011;55457;52.002;5.464;2022-08-21T05:12:43;6.95;;;3.63;;
55186;SDS011;55457;52.002;5.464;2022-08-21T05:15:10;9.63;;;3.70;;
55186;SDS011;55457;52.002;5.464;2022-08-21T05:17:37;5.90;;;3.28;;
55186;SDS011;55457;52.002;5.464;2022-08-21T05:20:03;6.00;;;3.38;;
55186;SDS011;55457;52.002;5.464;2022-08-21T05:22:29;7.32;;;3.45;;
55186;SDS011;55457;52.002;5.464;2022-08-21T05:24:54;5.10;;;3.08;;
55186;SDS011;55457;52.002;5.464;2022-08-21T05:27:19;6.97;;;3.60;;
55186;SDS011;55457;52.002;5.464;2022-08-21T05:29:45;3.80;;;2.42;;
55186;SDS011;55457;52.002;5.464;2022-08-21T05:32:11;5.78;;;3.45;;
55186;SDS011;55457;52.002;5.464;2022-08-21T05:34:37;7.78;;;3.03;;
55186;SDS011;55457;52.002;5.464;2022-08-21T05:37:02;5.68;;;3.00;;
55186;SDS011;55457;52.002;5.464;2022-08-21T05:39:27;5.47;;;2.95;;
55186;SDS011;55457;52.002;5.464;2022-08-21T05:41:53;5.20;;;3.33;;
55186;SDS011;55457;52.002;5.464;2022-08-21T05:44:18;5.38;;;3.35;;
55186;SDS011;55457;52.002;5.464;2022-08-21T05:46:43;5.95;;;3.17;;
55186;SDS011;55457;52.002;5.464;2022-08-21T05:49:10;7.57;;;3.55;;
55186;SDS011;55457;52.002;5.464;2022-08-21T05:51:35;6.45;;;2.90;;
55186;SDS011;55457;52.002;5.464;2022-08-21T05:54:01;7.78;;;3.42;;
55186;SDS011;55457;52.002;5.464;2022-08-21T05:56:26;5.63;;;2.95;;
55186;SDS011;55457;52.002;5.464;2022-08-21T05:58:51;7.35;;;3.15;;
55186;SDS011;55457;52.002;5.464;2022-08-21T06:01:17;4.50;;;3.17;;
55186;SDS011;55457;52.002;5.464;2022-08-21T06:03:42;7.38;;;3.00;;
55186;SDS011;55457;52.002;5.464;2022-08-21T06:06:08;5.85;;;3.30;;
55186;SDS011;55457;52.002;5.464;2022-08-21T06:08:35;6.38;;;3.30;;
55186;SDS011;55457;52.002;5.464;2022-08-21T06:11:01;7.72;;;3.15;;
55186;SDS011;55457;52.002;5.464;2022-08-21T06:13:28;4.88;;;2.80;;
55186;SDS011;55457;52.002;5.464;2022-08-21T06:18:33;7.65;;;3.53;;
55186;SDS011;55457;52.002;5.464;2022-08-21T06:21:00;7.55;;;3.03;;
55186;SDS011;55457;52.002;5.464;2022-08-21T06:23:25;5.88;;;3.47;;
55186;SDS011;55457;52.002;5.464;2022-08-21T06:25:50;7.57;;;3.97;;
55186;SDS011;55457;52.002;5.464;2022-08-21T06:28:16;6.22;;;3.50;;
55186;SDS011;55457;52.002;5.464;2022-08-21T06:30:41;5.03;;;3.25;;
55186;SDS011;55457;52.002;5.464;2022-08-21T06:33:06;8.13;;;3.65;;
55186;SDS011;55457;52.002;5.464;2022-08-21T06:35:32;5.10;;;3.42;;
55186;SDS011;55457;52.002;5.464;2022-08-21T06:37:59;7.97;;;3.63;;
55186;SDS011;55457;52.002;5.464;2022-08-21T06:40:27;7.85;;;3.45;;
55186;SDS011;55457;52.002;5.464;2022-08-21T06:42:53;6.00;;;2.88;;
55186;SDS011;55457;52.002;5.464;2022-08-21T06:45:19;6.03;;;3.45;;
55186;SDS011;55457;52.002;5.464;2022-08-21T06:47:46;7.00;;;3.58;;
55186;SDS011;55457;52.002;5.464;2022-08-21T06:50:11;5.07;;;3.00;;
55186;SDS011;55457;52.002;5.464;2022-08-21T06:52:37;4.57;;;3.10;;
55186;SDS011;55457;52.002;5.464;2022-08-21T06:55:04;5.78;;;3.00;;
55186;SDS011;55457;52.002;5.464;2022-08-21T06:57:31;7.93;;;3.40;;
55186;SDS011;55457;52.002;5.464;2022-08-21T06:59:56;6.20;;;2.92;;
55186;SDS011;55457;52.002;5.464;2022-08-21T07:02:22;7.00;;;3.00;;
55186;SDS011;55457;52.002;5.464;2022-08-21T07:04:47;10.27;;;4.05;;
55186;SDS011;55457;52.002;5.464;2022-08-21T07:07:12;7.63;;;3.00;;
55186;SDS011;55457;52.002;5.464;2022-08-21T07:09:38;4.53;;;2.58;;
55186;SDS011;55457;52.002;5.464;2022-08-21T07:12:04;6.30;;;2.72;;
55186;SDS011;55457;52.002;5.464;2022-08-21T07:14:30;15.18;;;3.50;;
55186;SDS011;55457;52.002;5.464;2022-08-21T07:16:55;10.57;;;3.03;;
55186;SDS011;55457;52.002;5.464;2022-08-21T07:19:20;5.25;;;2.17;;
55186;SDS011;55457;52.002;5.464;2022-08-21T07:21:46;7.82;;;1.92;;
55186;SDS011;55457;52.002;5.464;2022-08-21T07:24:11;7.80;;;2.00;;
55186;SDS011;55457;52.002;5.464;2022-08-21T07:26:37;6.88;;;1.85;;
55186;SDS011;55457;52.002;5.464;2022-08-21T07:29:03;5.38;;;2.20;;
55186;SDS011;55457;52.002;5.464;2022-08-21T07:31:29;6.50;;;2.05;;
55186;SDS011;55457;52.002;5.464;2022-08-21T07:33:55;7.18;;;2.35;;
55186;SDS011;55457;52.002;5.464;2022-08-21T07:36:21;3.75;;;1.80;;
55186;SDS011;55457;52.002;5.464;2022-08-21T07:38:47;6.80;;;2.55;;
55186;SDS011;55457;52.002;5.464;2022-08-21T07:41:14;4.25;;;2.05;;
55186;SDS011;55457;52.002;5.464;2022-08-21T07:43:42;5.65;;;1.92;;
55186;SDS011;55457;52.002;5.464;2022-08-21T07:46:08;9.32;;;2.33;;
55186;SDS011;55457;52.002;5.464;2022-08-21T07:48:34;5.43;;;1.90;;
55186;SDS011;55457;52.002;5.464;2022-08-21T07:50:59;4.85;;;1.90;;
55186;SDS011;55457;52.002;5.464;2022-08-21T07:53:30;6.72;;;1.63;;
55186;SDS011;55457;52.002;5.464;2022-08-21T07:55:58;6.40;;;1.60;;
55186;SDS011;55457;52.002;5.464;2022-08-21T07:58:24;10.77;;;2.58;;
55186;SDS011;55457;52.002;5.464;2022-08-21T08:00:49;7.70;;;2.05;;
55186;SDS011;55457;52.002;5.464;2022-08-21T08:03:14;7.15;;;2.22;;
55186;SDS011;55457;52.002;5.464;2022-08-21T08:05:40;6.88;;;2.05;;
55186;SDS011;55457;52.002;5.464;2022-08-21T08:08:05;6.57;;;2.20;;
55186;SDS011;55457;52.002;5.464;2022-08-21T08:10:30;6.82;;;2.20;;
55186;SDS011;55457;52.002;5.464;2022-08-21T08:12:56;8.32;;;2.40;;
55186;SDS011;55457;52.002;5.464;2022-08-21T08:15:22;6.65;;;1.92;;
55186;SDS011;55457;52.002;5.464;2022-08-21T08:17:49;5.38;;;1.83;;
55186;SDS011;55457;52.002;5.464;2022-08-21T08:20:16;6.63;;;2.65;;
55186;SDS011;55457;52.002;5.464;2022-08-21T08:22:43;9.25;;;2.63;;
55186;SDS011;55457;52.002;5.464;2022-08-21T08:25:10;6.18;;;2.08;;
55186;SDS011;55457;52.002;5.464;2022-08-21T08:27:37;5.97;;;2.08;;
55186;SDS011;55457;52.002;5.464;2022-08-21T08:30:04;6.28;;;2.13;;
55186;SDS011;55457;52.002;5.464;2022-08-21T08:32:30;7.88;;;2.20;;
55186;SDS011;55457;52.002;5.464;2022-08-21T08:34:55;8.90;;;2.03;;
55186;SDS011;55457;52.002;5.464;2022-08-21T08:37:21;9.70;;;2.38;;
55186;SDS011;55457;52.002;5.464;2022-08-21T08:39:46;8.40;;;2.25;;
55186;SDS011;55457;52.002;5.464;2022-08-21T08:42:13;8.43;;;2.08;;
55186;SDS011;55457;52.002;5.464;2022-08-21T08:45:06;6.20;;;1.70;;
55186;SDS011;55457;52.002;5.464;2022-08-21T08:47:37;8.20;;;2.33;;
55186;SDS011;55457;52.002;5.464;2022-08-21T08:52:49;9.75;;;2.63;;
55186;SDS011;55457;52.002;5.464;2022-08-21T08:55:36;8.57;;;2.38;;
55186;SDS011;55457;52.002;5.464;2022-08-21T08:58:05;5.13;;;1.80;;
55186;SDS011;55457;52.002;5.464;2022-08-21T09:00:31;8.38;;;2.33;;
55186;SDS011;55457;52.002;5.464;2022-08-21T09:02:59;8.48;;;2.08;;
55186;SDS011;55457;52.002;5.464;2022-08-21T09:05:27;7.43;;;2.30;;
55186;SDS011;55457;52.002;5.464;2022-08-21T09:10:57;7.03;;;2.33;;
55186;SDS011;55457;52.002;5.464;2022-08-21T09:13:31;5.47;;;1.92;;
55186;SDS011;55457;52.002;5.464;2022-08-21T09:22:13;10.27;;;2.33;;
55186;SDS011;55457;52.002;5.464;2022-08-21T09:27:33;7.47;;;2.33;;
55186;SDS011;55457;52.002;5.464;2022-08-21T09:29:59;4.68;;;1.75;;
55186;SDS011;55457;52.002;5.464;2022-08-21T09:32:26;6.20;;;1.77;;
55186;SDS011;55457;52.002;5.464;2022-08-21T09:35:06;4.38;;;1.75;;
55186;SDS011;55457;52.002;5.464;2022-08-21T09:37:46;7.47;;;1.60;;
55186;SDS011;55457;52.002;5.464;2022-08-21T09:40:19;6.40;;;2.03;;
55186;SDS011;55457;52.002;5.464;2022-08-21T09:42:56;4.63;;;1.77;;
55186;SDS011;55457;52.002;5.464;2022-08-21T09:45:23;4.95;;;1.77;;
55186;SDS011;55457;52.002;5.464;2022-08-21T09:47:49;7.78;;;2.42;;
55186;SDS011;55457;52.002;5.464;2022-08-21T09:50:20;6.72;;;1.55;;
55186;SDS011;55457;52.002;5.464;2022-08-21T09:52:55;9.13;;;2.38;;
55186;SDS011;55457;52.002;5.464;2022-08-21T09:55:39;6.57;;;1.85;;
55186;SDS011;55457;52.002;5.464;2022-08-21T09:58:38;7.90;;;2.38;;
55186;SDS011;55457;52.002;5.464;2022-08-21T10:01:06;5.82;;;2.78;;
55186;SDS011;55457;52.002;5.464;2022-08-21T10:03:37;8.75;;;2.28;;
55186;SDS011;55457;52.002;5.464;2022-08-21T10:06:03;9.68;;;1.73;;
55186;SDS011;55457;52.002;5.464;2022-08-21T10:08:34;4.83;;;1.57;;
55186;SDS011;55457;52.002;5.464;2022-08-21T10:16:47;6.55;;;1.70;;
55186;SDS011;55457;52.002;5.464;2022-08-21T10:25:04;2.92;;;1.65;;
55186;SDS011;55457;52.002;5.464;2022-08-21T10:27:24;6.95;;;1.88;;
55186;SDS011;55457;52.002;5.464;2022-08-21T10:29:55;7.20;;;1.35;;
55186;SDS011;55457;52.002;5.464;2022-08-21T10:32:39;6.82;;;1.40;;
55186;SDS011;55457;52.002;5.464;2022-08-21T10:37:58;7.63;;;2.37;;
55186;SDS011;55457;52.002;5.464;2022-08-21T10:48:36;8.87;;;1.43;;
55186;SDS011;55457;52.002;5.464;2022-08-21T10:51:13;7.93;;;1.83;;
55186;SDS011;55457;52.002;5.464;2022-08-21T10:56:16;6.10;;;1.35;;
55186;SDS011;55457;52.002;5.464;2022-08-21T11:04:04;6.95;;;1.58;;
55186;SDS011;55457;52.002;5.464;2022-08-21T11:06:37;6.32;;;1.30;;
55186;SDS011;55457;52.002;5.464;2022-08-21T11:09:12;6.18;;;1.33;;
55186;SDS011;55457;52.002;5.464;2022-08-21T11:12:03;6.68;;;1.75;;
55186;SDS011;55457;52.002;5.464;2022-08-21T11:17:26;5.97;;;1.15;;
55186;SDS011;55457;52.002;5.464;2022-08-21T11:20:05;3.38;;;1.33;;
55186;SDS011;55457;52.002;5.464;2022-08-21T11:22:40;3.42;;;1.33;;
55186;SDS011;55457;52.002;5.464;2022-08-21T11:25:23;5.05;;;1.08;;
55186;SDS011;55457;52.002;5.464;2022-08-21T11:30:27;6.28;;;1.80;;
55186;SDS011;55457;52.002;5.464;2022-08-21T11:38:35;5.63;;;1.27;;
55186;SDS011;55457;52.002;5.464;2022-08-21T11:43:53;8.68;;;1.70;;
55186;SDS011;55457;52.002;5.464;2022-08-21T11:46:44;4.20;;;1.67;;
55186;SDS011;55457;52.002;5.464;2022-08-21T11:54:47;5.05;;;1.10;;
55186;SDS011;55457;52.002;5.464;2022-08-21T11:57:21;7.20;;;1.52;;
55186;SDS011;55457;52.002;5.464;2022-08-21T12:02:34;4.22;;;1.55;;
55186;SDS011;55457;52.002;5.464;2022-08-21T12:05:08;5.57;;;1.90;;
55186;SDS011;55457;52.002;5.464;2022-08-21T12:07:37;3.33;;;1.40;;
55186;SDS011;55457;52.002;5.464;2022-08-21T12:10:10;7.05;;;1.45;;
55186;SDS011;55457;52.002;5.464;2022-08-21T12:12:41;5.70;;;1.58;;
55186;SDS011;55457;52.002;5.464;2022-08-21T12:23:30;4.40;;;1.63;;
55186;SDS011;55457;52.002;5.464;2022-08-21T12:26:02;4.13;;;1.60;;
55186;SDS011;55457;52.002;5.464;2022-08-21T12:28:35;4.78;;;1.98;;
55186;SDS011;55457;52.002;5.464;2022-08-21T12:31:01;10.55;;;1.90;;
55186;SDS011;55457;52.002;5.464;2022-08-21T12:33:28;3.15;;;1.70;;
55186;SDS011;55457;52.002;5.464;2022-08-21T12:36:05;7.63;;;2.67;;
55186;SDS011;55457;52.002;5.464;2022-08-21T12:38:47;5.30;;;2.28;;
55186;SDS011;55457;52.002;5.464;2022-08-21T12:41:43;4.05;;;1.77;;
55186;SDS011;55457;52.002;5.464;2022-08-21T12:44:15;4.88;;;1.80;;
55186;SDS011;55457;52.002;5.464;2022-08-21T12:46:59;5.38;;;2.80;;
55186;SDS011;55457;52.002;5.464;2022-08-21T12:49:36;6.30;;;2.40;;
55186;SDS011;55457;52.002;5.464;2022-08-21T12:55:02;3.92;;;2.22;;
55186;SDS011;55457;52.002;5.464;2022-08-21T12:57:29;4.97;;;1.75;;
55186;SDS011;55457;52.002;5.464;2022-08-21T12:59:56;6.25;;;2.22;;
55186;SDS011;55457;52.002;5.464;2022-08-21T13:02:28;8.25;;;2.20;;
55186;SDS011;55457;52.002;5.464;2022-08-21T13:04:56;4.10;;;1.95;;
55186;SDS011;55457;52.002;5.464;2022-08-21T13:07:29;4.47;;;2.20;;
55186;SDS011;55457;52.002;5.464;2022-08-21T13:10:03;4.18;;;2.40;;
55186;SDS011;55457;52.002;5.464;2022-08-21T13:12:31;3.78;;;1.95;;
55186;SDS011;55457;52.002;5.464;2022-08-21T13:15:00;3.63;;;1.92;;
55186;SDS011;55457;52.002;5.464;2022-08-21T13:17:30;4.30;;;2.08;;
55186;SDS011;55457;52.002;5.464;2022-08-21T13:20:00;4.10;;;2.25;;
55186;SDS011;55457;52.002;5.464;2022-08-21T13:22:30;5.50;;;2.20;;
55186;SDS011;55457;52.002;5.464;2022-08-21T13:24:56;4.95;;;2.05;;
55186;SDS011;55457;52.002;5.464;2022-08-21T13:27:26;4.82;;;2.15;;
55186;SDS011;55457;52.002;5.464;2022-08-21T13:32:34;4.55;;;1.73;;
55186;SDS011;55457;52.002;5.464;2022-08-21T13:35:14;5.53;;;2.13;;
55186;SDS011;55457;52.002;5.464;2022-08-21T13:37:40;5.93;;;1.83;;
55186;SDS011;55457;52.002;5.464;2022-08-21T13:40:09;5.20;;;2.00;;
55186;SDS011;55457;52.002;5.464;2022-08-21T13:42:38;4.20;;;2.60;;
55186;SDS011;55457;52.002;5.464;2022-08-21T13:45:10;5.60;;;2.58;;
55186;SDS011;55457;52.002;5.464;2022-08-21T13:47:38;3.10;;;2.20;;
55186;SDS011;55457;52.002;5.464;2022-08-21T13:50:04;3.28;;;2.40;;
55186;SDS011;55457;52.002;5.464;2022-08-21T13:52:32;3.92;;;2.10;;
55186;SDS011;55457;52.002;5.464;2022-08-21T13:55:00;5.85;;;2.80;;
55186;SDS011;55457;52.002;5.464;2022-08-21T13:57:33;4.43;;;2.13;;
55186;SDS011;55457;52.002;5.464;2022-08-21T14:00:16;2.17;;;1.90;;
55186;SDS011;55457;52.002;5.464;2022-08-21T14:02:51;3.78;;;2.00;;
55186;SDS011;55457;52.002;5.464;2022-08-21T14:07:50;3.53;;;2.00;;
55186;SDS011;55457;52.002;5.464;2022-08-21T14:10:21;3.85;;;2.30;;
55186;SDS011;55457;52.002;5.464;2022-08-21T14:12:55;5.82;;;1.90;;
55186;SDS011;55457;52.002;5.464;2022-08-21T14:15:27;5.28;;;1.80;;
55186;SDS011;55457;52.002;5.464;2022-08-21T14:17:57;3.90;;;2.13;;
55186;SDS011;55457;52.002;5.464;2022-08-21T14:20:34;5.22;;;2.58;;
55186;SDS011;55457;52.002;5.464;2022-08-21T14:23:00;5.30;;;2.10;;
55186;SDS011;55457;52.002;5.464;2022-08-21T14:25:28;5.55;;;2.20;;
55186;SDS011;55457;52.002;5.464;2022-08-21T14:30:50;4.55;;;2.00;;
55186;SDS011;55457;52.002;5.464;2022-08-21T14:33:26;5.60;;;1.88;;
55186;SDS011;55457;52.002;5.464;2022-08-21T14:35:55;5.05;;;1.50;;
55186;SDS011;55457;52.002;5.464;2022-08-21T14:38:22;5.28;;;1.80;;
55186;SDS011;55457;52.002;5.464;2022-08-21T14:40:54;4.70;;;2.08;;
55186;SDS011;55457;52.002;5.464;2022-08-21T14:43:22;5.35;;;1.98;;
55186;SDS011;55457;52.002;5.464;2022-08-21T14:45:50;3.97;;;1.95;;
55186;SDS011;55457;52.002;5.464;2022-08-21T14:48:15;11.02;;;2.30;;
55186;SDS011;55457;52.002;5.464;2022-08-21T14:50:40;5.88;;;2.00;;
55186;SDS011;55457;52.002;5.464;2022-08-21T14:53:06;3.22;;;1.90;;
55186;SDS011;55457;52.002;5.464;2022-08-21T14:55:31;7.15;;;1.98;;
55186;SDS011;55457;52.002;5.464;2022-08-21T14:58:20;2.83;;;2.03;;
55186;SDS011;55457;52.002;5.464;2022-08-21T15:00:47;5.30;;;2.33;;
55186;SDS011;55457;52.002;5.464;2022-08-21T15:03:14;2.13;;;1.58;;
55186;SDS011;55457;52.002;5.464;2022-08-21T15:05:39;4.05;;;1.92;;
55186;SDS011;55457;52.002;5.464;2022-08-21T15:08:05;4.10;;;1.92;;
55186;SDS011;55457;52.002;5.464;2022-08-21T15:10:30;5.85;;;1.95;;
55186;SDS011;55457;52.002;5.464;2022-08-21T15:12:58;3.75;;;1.67;;
55186;SDS011;55457;52.002;5.464;2022-08-21T15:15:24;7.32;;;2.25;;
55186;SDS011;55457;52.002;5.464;2022-08-21T15:17:49;5.85;;;1.70;;
55186;SDS011;55457;52.002;5.464;2022-08-21T15:20:14;4.40;;;2.05;;
55186;SDS011;55457;52.002;5.464;2022-08-21T15:22:40;4.15;;;2.00;;
55186;SDS011;55457;52.002;5.464;2022-08-21T15:25:05;5.47;;;2.17;;
55186;SDS011;55457;52.002;5.464;2022-08-21T15:27:31;3.08;;;1.92;;
55186;SDS011;55457;52.002;5.464;2022-08-21T15:29:56;5.53;;;1.70;;
55186;SDS011;55457;52.002;5.464;2022-08-21T15:32:24;3.83;;;2.30;;
55186;SDS011;55457;52.002;5.464;2022-08-21T15:34:52;2.95;;;1.70;;
55186;SDS011;55457;52.002;5.464;2022-08-21T15:37:18;8.63;;;2.28;;
55186;SDS011;55457;52.002;5.464;2022-08-21T15:39:44;4.07;;;1.85;;
55186;SDS011;55457;52.002;5.464;2022-08-21T15:42:10;6.57;;;2.47;;
55186;SDS011;55457;52.002;5.464;2022-08-21T15:44:37;4.97;;;2.20;;
55186;SDS011;55457;52.002;5.464;2022-08-21T15:47:04;3.33;;;2.20;;
55186;SDS011;55457;52.002;5.464;2022-08-21T15:49:31;4.72;;;2.30;;
55186;SDS011;55457;52.002;5.464;2022-08-21T15:51:56;2.75;;;1.80;;
55186;SDS011;55457;52.002;5.464;2022-08-21T15:54:21;3.15;;;2.13;;
55186;SDS011;55457;52.002;5.464;2022-08-21T15:56:47;6.70;;;2.00;;
55186;SDS011;55457;52.002;5.464;2022-08-21T15:59:16;4.38;;;2.03;;
55186;SDS011;55457;52.002;5.464;2022-08-21T16:01:46;5.80;;;2.23;;
55186;SDS011;55457;52.002;5.464;2022-08-21T16:04:15;3.05;;;2.33;;
55186;SDS011;55457;52.002;5.464;2022-08-21T16:06:46;5.40;;;2.38;;
55186;SDS011;55457;52.002;5.464;2022-08-21T16:09:12;3.83;;;2.42;;
55186;SDS011;55457;52.002;5.464;2022-08-21T16:11:38;5.47;;;2.10;;
55186;SDS011;55457;52.002;5.464;2022-08-21T16:14:03;4.47;;;2.53;;
55186;SDS011;55457;52.002;5.464;2022-08-21T16:16:29;3.50;;;2.33;;
55186;SDS011;55457;52.002;5.464;2022-08-21T16:18:57;5.53;;;2.42;;
55186;SDS011;55457;52.002;5.464;2022-08-21T16:21:22;5.70;;;2.78;;
55186;SDS011;55457;52.002;5.464;2022-08-21T16:23:48;6.97;;;2.80;;